Time;durP1;ratioP1;P1;durP2;ratioP2;P2;SDS_P1;SDS_P2;PMS_P1;PMS_P2;Temp;Humidity;BMP_temperature;BMP_pressure;BME280_temperature;BME280_humidity;BME280_pressure;Samples;Min_cycle;Max_cycle;Signal;HPM_P1;HPM_P2
2022/02/13 00:01:36;;;;;;;26.60;12.98;;;;;;;;;;10245505;28;20069;-66
2022/02/13 00:06:38;;;;;;;13.73;8.80;;;;;;;;;;10248991;28;20103;-65
2022/02/13 00:11:37;;;;;;;15.38;10.07;;;;;;;;;;10259080;28;20069;-65
2022/02/13 00:16:36;;;;;;;10.77;7.63;;;;;;;;;;10242144;28;20072;-65
2022/02/13 00:21:34;;;;;;;13.25;8.95;;;;;;;;;;10243304;28;20077;-65
2022/02/13 00:26:33;;;;;;;9.68;7.18;;;;;;;;;;10237623;28;20088;-64
2022/02/13 00:31:33;;;;;;;13.95;8.52;;;;;;;;;;10243090;28;20077;-64
2022/02/13 00:36:32;;;;;;;10.50;6.43;;;;;;;;;;10244798;28;20471;-65
2022/02/13 00:41:30;;;;;;;12.57;7.60;;;;;;;;;;10246032;28;20065;-64
2022/02/13 00:46:29;;;;;;;9.25;7.35;;;;;;;;;;10243156;28;20073;-65
2022/02/13 00:51:28;;;;;;;12.88;6.22;;;;;;;;;;10241989;28;20512;-65
2022/02/13 00:56:26;;;;;;;7.32;5.75;;;;;;;;;;10240244;28;20507;-66
2022/02/13 01:01:25;;;;;;;8.82;6.03;;;;;;;;;;10241029;28;20076;-66
2022/02/13 01:06:27;;;;;;;6.32;5.00;;;;;;;;;;10246072;28;20076;-66
2022/02/13 01:11:26;;;;;;;9.52;5.18;;;;;;;;;;10241295;28;20520;-66
2022/02/13 01:16:26;;;;;;;7.22;5.55;;;;;;;;;;10246840;28;20510;-66
2022/02/13 01:21:25;;;;;;;9.13;5.25;;;;;;;;;;10247624;28;20585;-66
2022/02/13 01:26:24;;;;;;;10.57;6.57;;;;;;;;;;10253191;28;20469;-66
2022/02/13 01:31:25;;;;;;;6.40;5.28;;;;;;;;;;10255197;28;20084;-64
2022/02/13 01:36:23;;;;;;;7.57;4.80;;;;;;;;;;10250457;28;20064;-65
2022/02/13 01:41:21;;;;;;;6.50;5.05;;;;;;;;;;10247910;28;20069;-65
2022/02/13 01:46:20;;;;;;;6.63;5.13;;;;;;;;;;10252748;28;20109;-65
2022/02/13 01:51:19;;;;;;;9.43;6.47;;;;;;;;;;10251183;28;20072;-65
2022/02/13 01:56:19;;;;;;;8.20;6.00;;;;;;;;;;10247054;28;20067;-65
2022/02/13 02:01:17;;;;;;;9.18;6.40;;;;;;;;;;10246091;28;20061;-65
2022/02/13 02:06:16;;;;;;;9.13;6.18;;;;;;;;;;10245139;28;20041;-64
2022/02/13 02:11:15;;;;;;;9.57;7.00;;;;;;;;;;10247177;28;20074;-66
2022/02/13 02:16:14;;;;;;;15.32;9.15;;;;;;;;;;10248909;28;20073;-66
2022/02/13 02:21:12;;;;;;;21.77;13.88;;;;;;;;;;10244017;28;20049;-66
2022/02/13 02:26:17;;;;;;;10.75;6.93;;;;;;;;;;10245224;28;20426;-65
2022/02/13 02:31:15;;;;;;;10.48;6.95;;;;;;;;;;10251669;28;20068;-65
2022/02/13 02:36:15;;;;;;;11.18;6.93;;;;;;;;;;10245430;28;20156;-65
2022/02/13 02:41:15;;;;;;;10.95;6.50;;;;;;;;;;10249916;28;20076;-65
2022/02/13 02:46:13;;;;;;;7.45;6.22;;;;;;;;;;10242941;28;20526;-64
2022/02/13 02:51:12;;;;;;;12.52;6.63;;;;;;;;;;10243587;28;20072;-64
2022/02/13 02:56:11;;;;;;;10.73;6.95;;;;;;;;;;10259194;28;20076;-65
2022/02/13 03:01:11;;;;;;;9.18;6.03;;;;;;;;;;10241680;28;20048;-66
2022/02/13 03:06:09;;;;;;;7.65;6.15;;;;;;;;;;10240914;28;20068;-64
2022/02/13 03:11:09;;;;;;;9.48;7.70;;;;;;;;;;10241321;28;20075;-65
2022/02/13 03:16:07;;;;;;;8.68;6.70;;;;;;;;;;10242156;28;20067;-64
2022/02/13 03:21:07;;;;;;;12.68;7.50;;;;;;;;;;10245867;28;20070;-64
2022/02/13 03:26:05;;;;;;;9.65;7.40;;;;;;;;;;10242320;28;20072;-64
2022/02/13 03:31:04;;;;;;;9.82;7.10;;;;;;;;;;10242635;28;20061;-65
2022/02/13 03:36:02;;;;;;;10.18;6.70;;;;;;;;;;10241689;28;20130;-65
2022/02/13 03:41:02;;;;;;;11.70;9.13;;;;;;;;;;10242483;28;20134;-66
2022/02/13 03:46:01;;;;;;;13.63;7.50;;;;;;;;;;10243097;28;20088;-65
2022/02/13 03:50:59;;;;;;;9.90;7.93;;;;;;;;;;10240742;28;20065;-65
2022/02/13 03:55:57;;;;;;;9.95;7.57;;;;;;;;;;10246941;28;22932;-64
2022/02/13 04:00:57;;;;;;;9.13;7.55;;;;;;;;;;10246457;28;20081;-65
2022/02/13 04:05:56;;;;;;;10.00;7.70;;;;;;;;;;10243924;28;20098;-66
2022/02/13 04:10:56;;;;;;;12.82;7.93;;;;;;;;;;10244030;28;20072;-65
2022/02/13 04:15:54;;;;;;;10.93;7.63;;;;;;;;;;10242449;28;20068;-64
2022/02/13 04:20:54;;;;;;;15.98;8.20;;;;;;;;;;10247523;28;20111;-64
2022/02/13 04:25:52;;;;;;;9.43;8.40;;;;;;;;;;10242980;28;20091;-65
2022/02/13 04:30:52;;;;;;;12.40;7.60;;;;;;;;;;10244705;28;20077;-65
2022/02/13 04:35:51;;;;;;;8.80;7.00;;;;;;;;;;10254406;28;20593;-65
2022/02/13 04:40:51;;;;;;;13.32;7.72;;;;;;;;;;10246794;28;20065;-65
2022/02/13 04:45:49;;;;;;;9.70;7.13;;;;;;;;;;10242762;28;20073;-64
2022/02/13 04:50:48;;;;;;;19.17;10.95;;;;;;;;;;10242231;28;20065;-65
2022/02/13 04:55:46;;;;;;;18.10;10.13;;;;;;;;;;10245322;28;20076;-65
2022/02/13 05:00:46;;;;;;;10.68;7.72;;;;;;;;;;10252602;28;20065;-65
2022/02/13 05:05:44;;;;;;;11.50;9.50;;;;;;;;;;10252417;28;20095;-64
2022/02/13 05:10:43;;;;;;;10.55;8.30;;;;;;;;;;10253218;28;20080;-64
2022/02/13 05:15:41;;;;;;;14.20;9.73;;;;;;;;;;10248615;28;20266;-63
2022/02/13 05:20:41;;;;;;;14.75;11.00;;;;;;;;;;10248554;28;20068;-65
2022/02/13 05:25:39;;;;;;;11.13;7.93;;;;;;;;;;10245810;28;20072;-65
2022/02/13 05:30:37;;;;;;;11.02;8.13;;;;;;;;;;10246405;28;20451;-65
2022/02/13 05:35:36;;;;;;;32.38;21.20;;;;;;;;;;10251263;28;20307;-65
2022/02/13 05:40:35;;;;;;;13.75;9.63;;;;;;;;;;10250029;28;20080;-64
2022/02/13 05:45:34;;;;;;;10.63;8.63;;;;;;;;;;10243251;28;20080;-64
2022/02/13 05:50:32;;;;;;;11.90;9.30;;;;;;;;;;10250031;28;20069;-65
2022/02/13 05:55:30;;;;;;;16.95;10.43;;;;;;;;;;10248184;28;20061;-65
2022/02/13 06:00:30;;;;;;;13.15;10.50;;;;;;;;;;10247563;28;20044;-63
2022/02/13 06:05:28;;;;;;;17.40;11.23;;;;;;;;;;10251939;28;20096;-64
2022/02/13 06:10:27;;;;;;;20.77;12.88;;;;;;;;;;10256421;28;20478;-63
2022/02/13 06:15:25;;;;;;;14.10;10.90;;;;;;;;;;10244366;28;20072;-64
2022/02/13 06:20:24;;;;;;;12.73;9.25;;;;;;;;;;10249371;28;20072;-66
2022/02/13 06:25:23;;;;;;;13.07;9.40;;;;;;;;;;10246761;28;20083;-66
2022/02/13 06:30:21;;;;;;;25.95;13.98;;;;;;;;;;10258019;28;20407;-66
2022/02/13 06:35:20;;;;;;;16.38;11.88;;;;;;;;;;10252202;28;20076;-65
2022/02/13 06:40:20;;;;;;;26.42;13.93;;;;;;;;;;10248601;28;20554;-63
2022/02/13 06:45:19;;;;;;;33.72;21.90;;;;;;;;;;10249244;28;20080;-62
2022/02/13 06:50:18;;;;;;;19.50;15.65;;;;;;;;;;10248714;28;20085;-63
2022/02/13 06:55:16;;;;;;;35.53;17.75;;;;;;;;;;10249559;28;20079;-61
2022/02/13 07:00:17;;;;;;;18.33;13.05;;;;;;;;;;10252106;28;20532;-61
2022/02/13 07:05:15;;;;;;;29.65;17.42;;;;;;;;;;10247297;28;20068;-61
2022/02/13 07:10:14;;;;;;;27.58;17.05;;;;;;;;;;10251172;28;20065;-60
2022/02/13 07:15:12;;;;;;;28.63;17.63;;;;;;;;;;10235716;28;20364;-63
2022/02/13 07:20:15;;;;;;;55.78;32.03;;;;;;;;;;10238366;28;20056;-63
2022/02/13 07:25:13;;;;;;;62.35;32.97;;;;;;;;;;10236438;28;20510;-63
2022/02/13 07:30:14;;;;;;;44.53;22.95;;;;;;;;;;10242405;28;20057;-63
2022/02/13 07:35:12;;;;;;;61.15;39.03;;;;;;;;;;10249384;28;20067;-61
2022/02/13 07:40:14;;;;;;;48.95;31.15;;;;;;;;;;10244992;28;20061;-62
2022/02/13 07:45:13;;;;;;;57.83;31.20;;;;;;;;;;10244218;28;20080;-61
2022/02/13 07:50:11;;;;;;;43.05;29.98;;;;;;;;;;10245435;28;20135;-62
2022/02/13 07:55:12;;;;;;;39.70;25.85;;;;;;;;;;10247854;28;20059;-62
2022/02/13 08:00:12;;;;;;;21.88;14.82;;;;;;;;;;10251641;28;20072;-61
2022/02/13 08:05:10;;;;;;;57.53;32.05;;;;;;;;;;10246442;28;20448;-62
2022/02/13 08:10:09;;;;;;;85.20;36.50;;;;;;;;;;10246075;28;20068;-63
2022/02/13 08:15:08;;;;;;;30.67;22.88;;;;;;;;;;10243708;28;20076;-63
2022/02/13 08:20:13;;;;;;;27.17;18.13;;;;;;;;;;10244477;28;20457;-62
2022/02/13 08:25:11;;;;;;;35.60;23.40;;;;;;;;;;10249175;28;20511;-61
2022/02/13 08:30:10;;;;;;;48.85;25.95;;;;;;;;;;10242755;28;20083;-62
2022/02/13 08:35:10;;;;;;;74.38;28.25;;;;;;;;;;10252166;28;20064;-62
2022/02/13 08:40:09;;;;;;;42.53;20.73;;;;;;;;;;10254726;28;20072;-64
2022/02/13 08:45:08;;;;;;;31.10;18.13;;;;;;;;;;10250007;28;20483;-63
2022/02/13 08:50:06;;;;;;;36.97;20.23;;;;;;;;;;10252210;28;20091;-64
2022/02/13 08:55:09;;;;;;;59.85;28.30;;;;;;;;;;10256719;28;20060;-62
2022/02/13 09:00:07;;;;;;;15.68;12.82;;;;;;;;;;10248000;28;20581;-63
2022/02/13 09:05:08;;;;;;;36.72;23.15;;;;;;;;;;10249047;28;20087;-64
2022/02/13 09:10:07;;;;;;;23.70;14.30;;;;;;;;;;10249213;28;20077;-62
2022/02/13 09:15:07;;;;;;;20.20;15.05;;;;;;;;;;10244264;28;20075;-62
2022/02/13 09:20:06;;;;;;;32.80;18.05;;;;;;;;;;10242257;28;20488;-65
2022/02/13 09:25:05;;;;;;;31.50;17.08;;;;;;;;;;10240766;28;20455;-66
2022/02/13 09:30:04;;;;;;;22.02;13.85;;;;;;;;;;10246970;28;20452;-65
2022/02/13 09:35:04;;;;;;;16.92;12.55;;;;;;;;;;10247276;28;20069;-66
2022/02/13 09:40:02;;;;;;;12.75;9.43;;;;;;;;;;10248867;28;20510;-65
2022/02/13 09:45:00;;;;;;;22.40;15.38;;;;;;;;;;10248783;28;20076;-66
2022/02/13 09:49:59;;;;;;;18.88;13.35;;;;;;;;;;10248099;28;20454;-65
2022/02/13 09:54:58;;;;;;;16.98;10.60;;;;;;;;;;10246638;28;20541;-64
2022/02/13 09:59:58;;;;;;;22.00;13.85;;;;;;;;;;10247448;28;20069;-66
2022/02/13 10:04:56;;;;;;;18.98;12.93;;;;;;;;;;10245677;28;20068;-65
2022/02/13 10:09:59;;;;;;;33.33;22.25;;;;;;;;;;10245081;28;20061;-65
2022/02/13 10:14:58;;;;;;;37.50;25.52;;;;;;;;;;10250402;28;20084;-64
2022/02/13 10:19:56;;;;;;;21.60;15.23;;;;;;;;;;10245626;28;20060;-65
2022/02/13 10:24:54;;;;;;;13.82;9.90;;;;;;;;;;10244994;28;20065;-69
2022/02/13 10:29:55;;;;;;;16.98;13.80;;;;;;;;;;10264469;28;20056;-65
2022/02/13 10:34:57;;;;;;;20.33;13.52;;;;;;;;;;10257007;28;20069;-65
2022/02/13 10:39:56;;;;;;;11.52;9.98;;;;;;;;;;10252563;28;20072;-65
2022/02/13 10:45:15;;;;;;;11.32;9.50;;;;;;;;;;10251889;28;20073;-65
2022/02/13 10:50:14;;;;;;;11.90;9.00;;;;;;;;;;10252008;28;20069;-67
2022/02/13 10:55:12;;;;;;;12.55;8.65;;;;;;;;;;10250094;28;20447;-64
2022/02/13 11:00:16;;;;;;;14.77;9.68;;;;;;;;;;10249548;28;20071;-65
2022/02/13 11:05:15;;;;;;;17.58;8.85;;;;;;;;;;10241771;28;20072;-65
2022/02/13 11:10:16;;;;;;;13.85;10.07;;;;;;;;;;10248428;28;20065;-66
2022/02/13 11:15:17;;;;;;;7.00;5.50;;;;;;;;;;10253610;28;20079;-66
2022/02/13 11:20:16;;;;;;;12.73;7.63;;;;;;;;;;10248478;28;20091;-66
2022/02/13 11:25:16;;;;;;;10.98;6.45;;;;;;;;;;10248396;28;20068;-66
2022/02/13 11:30:36;;;;;;;13.85;9.50;;;;;;;;;;10253233;28;20060;-66
2022/02/13 11:35:49;;;;;;;18.08;10.40;;;;;;;;;;10244521;28;20081;-66
2022/02/13 11:40:48;;;;;;;12.35;8.57;;;;;;;;;;10240733;28;20444;-66
2022/02/13 11:45:49;;;;;;;12.70;8.70;;;;;;;;;;10238898;28;20515;-65
2022/02/13 11:50:47;;;;;;;16.00;8.75;;;;;;;;;;10255873;28;20072;-65
2022/02/13 11:55:45;;;;;;;15.02;9.82;;;;;;;;;;10236971;28;20140;-65
2022/02/13 12:00:49;;;;;;;15.25;9.70;;;;;;;;;;10239088;28;20065;-65
2022/02/13 12:05:52;;;;;;;15.05;9.38;;;;;;;;;;10237511;28;20472;-66
2022/02/13 12:10:50;;;;;;;13.45;9.10;;;;;;;;;;10243985;28;20064;-65
2022/02/13 12:15:52;;;;;;;14.20;10.45;;;;;;;;;;10240430;28;20064;-65
2022/02/13 12:20:50;;;;;;;9.50;6.18;;;;;;;;;;10244504;28;20499;-66
2022/02/13 12:25:49;;;;;;;10.75;7.45;;;;;;;;;;10242011;28;20514;-66
2022/02/13 12:30:48;;;;;;;10.20;5.68;;;;;;;;;;10250204;28;20073;-67
2022/02/13 12:35:48;;;;;;;14.68;9.18;;;;;;;;;;10244303;28;20076;-66
2022/02/13 12:40:47;;;;;;;10.10;6.80;;;;;;;;;;10246352;28;20084;-66
2022/02/13 12:45:46;;;;;;;8.98;5.88;;;;;;;;;;10243035;28;20077;-66
2022/02/13 12:50:46;;;;;;;24.15;15.77;;;;;;;;;;10243922;28;20471;-65
2022/02/13 12:55:46;;;;;;;17.90;12.32;;;;;;;;;;10244955;28;20517;-67
2022/02/13 13:00:45;;;;;;;33.92;22.17;;;;;;;;;;10248357;28;20072;-66
2022/02/13 13:06:04;;;;;;;22.13;13.10;;;;;;;;;;10240649;28;20096;-65
2022/02/13 13:11:08;;;;;;;15.57;9.30;;;;;;;;;;10244710;28;20081;-65
2022/02/13 13:16:08;;;;;;;17.90;12.35;;;;;;;;;;10240798;28;20080;-65
2022/02/13 13:21:14;;;;;;;13.13;8.25;;;;;;;;;;10244537;28;20076;-65
2022/02/13 13:26:34;;;;;;;13.48;9.85;;;;;;;;;;10251006;28;20060;-66
2022/02/13 13:31:33;;;;;;;25.42;17.60;;;;;;;;;;10246833;28;20069;-66
2022/02/13 13:36:31;;;;;;;15.23;11.68;;;;;;;;;;10247817;28;20519;-65
2022/02/13 13:41:34;;;;;;;11.50;9.38;;;;;;;;;;10247608;28;20057;-67
2022/02/13 13:46:35;;;;;;;13.05;8.80;;;;;;;;;;10246548;28;20657;-67
2022/02/13 13:51:34;;;;;;;15.38;11.10;;;;;;;;;;10258509;28;20471;-67
2022/02/13 13:56:32;;;;;;;24.40;19.23;;;;;;;;;;10250195;28;20061;-66
2022/02/13 14:01:32;;;;;;;10.82;7.35;;;;;;;;;;10252855;28;20063;-66
2022/02/13 14:06:30;;;;;;;19.20;12.77;;;;;;;;;;10251701;28;20079;-66
2022/02/13 14:11:30;;;;;;;16.05;10.40;;;;;;;;;;10248603;28;20072;-66
2022/02/13 14:16:29;;;;;;;21.25;12.80;;;;;;;;;;10250105;28;20065;-67
2022/02/13 14:21:31;;;;;;;16.25;11.63;;;;;;;;;;10252737;28;20037;-66
2022/02/13 14:26:29;;;;;;;30.10;16.98;;;;;;;;;;10247172;28;20081;-65
2022/02/13 14:31:27;;;;;;;12.02;7.65;;;;;;;;;;10242960;28;20056;-65
2022/02/13 14:36:26;;;;;;;12.98;7.75;;;;;;;;;;10244482;28;20079;-66
2022/02/13 14:41:27;;;;;;;15.00;10.73;;;;;;;;;;10246717;28;20072;-66
2022/02/13 14:46:26;;;;;;;36.60;24.42;;;;;;;;;;10253449;28;20041;-66
2022/02/13 14:51:24;;;;;;;21.52;13.88;;;;;;;;;;10245913;28;20496;-66
2022/02/13 14:56:22;;;;;;;26.30;16.60;;;;;;;;;;10244988;28;20087;-66
2022/02/13 15:01:22;;;;;;;38.25;25.15;;;;;;;;;;10248004;28;20052;-66
2022/02/13 15:06:21;;;;;;;67.55;36.05;;;;;;;;;;10245224;28;20065;-67
2022/02/13 15:11:20;;;;;;;51.10;26.83;;;;;;;;;;10251353;28;20064;-66
2022/02/13 15:16:18;;;;;;;36.22;22.00;;;;;;;;;;10248728;28;20110;-66
2022/02/13 15:21:18;;;;;;;28.88;19.95;;;;;;;;;;10255357;28;20072;-66
2022/02/13 15:26:16;;;;;;;28.02;19.48;;;;;;;;;;10248130;28;20080;-66
2022/02/13 15:31:15;;;;;;;35.25;26.00;;;;;;;;;;10245545;28;20071;-66
2022/02/13 15:36:13;;;;;;;30.55;22.00;;;;;;;;;;10244802;28;20079;-66
2022/02/13 15:41:14;;;;;;;30.52;20.30;;;;;;;;;;10243445;28;20073;-66
2022/02/13 15:46:12;;;;;;;38.72;23.20;;;;;;;;;;10244754;28;20095;-66
2022/02/13 15:51:11;;;;;;;39.83;23.65;;;;;;;;;;10247346;28;20084;-66
2022/02/13 15:56:10;;;;;;;57.08;35.67;;;;;;;;;;10240122;28;20069;-66
2022/02/13 16:01:09;;;;;;;40.20;27.00;;;;;;;;;;10238917;28;20044;-66
2022/02/13 16:06:08;;;;;;;83.22;53.30;;;;;;;;;;10243327;28;20037;-65
2022/02/13 16:11:06;;;;;;;70.85;43.22;;;;;;;;;;10243509;28;20083;-65
2022/02/13 16:16:05;;;;;;;53.35;35.22;;;;;;;;;;10246258;28;20462;-65
2022/02/13 16:21:04;;;;;;;56.17;36.35;;;;;;;;;;10243385;28;20067;-66
2022/02/13 16:26:03;;;;;;;49.28;32.38;;;;;;;;;;10241340;28;20076;-65
2022/02/13 16:31:02;;;;;;;48.45;35.72;;;;;;;;;;10243462;28;20084;-66
2022/02/13 16:36:00;;;;;;;44.17;30.85;;;;;;;;;;10241778;28;20510;-66
2022/02/13 16:41:00;;;;;;;54.03;37.42;;;;;;;;;;10240131;28;20041;-66
2022/02/13 16:46:03;;;;;;;34.10;23.00;;;;;;;;;;10245404;28;20536;-66
2022/02/13 16:51:01;;;;;;;25.33;19.17;;;;;;;;;;10240078;28;20080;-66
2022/02/13 16:56:01;;;;;;;25.98;16.55;;;;;;;;;;10257151;28;20084;-65
2022/02/13 17:00:59;;;;;;;61.92;35.40;;;;;;;;;;10259133;28;20076;-67
2022/02/13 17:05:58;;;;;;;41.35;27.35;;;;;;;;;;10245203;28;20099;-67
2022/02/13 17:10:57;;;;;;;50.42;31.63;;;;;;;;;;10246824;28;20193;-67
2022/02/13 17:15:58;;;;;;;54.33;33.03;;;;;;;;;;10249738;28;20069;-67
2022/02/13 17:20:56;;;;;;;45.88;28.10;;;;;;;;;;10248780;28;20068;-67
2022/02/13 17:25:55;;;;;;;35.83;24.75;;;;;;;;;;10244889;28;20533;-66
2022/02/13 17:30:53;;;;;;;82.82;48.70;;;;;;;;;;10243268;28;20068;-66
2022/02/13 17:35:53;;;;;;;83.60;50.22;;;;;;;;;;10242909;28;20355;-67
2022/02/13 17:40:52;;;;;;;118.43;70.18;;;;;;;;;;10246350;28;20073;-67
2022/02/13 17:45:53;;;;;;;80.63;49.47;;;;;;;;;;10245463;28;20438;-67
2022/02/13 17:50:52;;;;;;;54.42;40.40;;;;;;;;;;10247885;28;20163;-67
2022/02/13 17:55:53;;;;;;;42.17;28.70;;;;;;;;;;10257486;28;20490;-66
2022/02/13 18:00:51;;;;;;;36.83;22.65;;;;;;;;;;10249782;28;20087;-66
2022/02/13 18:05:50;;;;;;;30.30;21.88;;;;;;;;;;10253727;28;20072;-67
2022/02/13 18:10:51;;;;;;;19.35;13.40;;;;;;;;;;10249645;28;20076;-69
2022/02/13 18:15:50;;;;;;;20.27;15.38;;;;;;;;;;10252222;28;20072;-66
2022/02/13 18:20:49;;;;;;;15.27;10.18;;;;;;;;;;10251510;28;20068;-67
2022/02/13 18:25:50;;;;;;;19.02;13.27;;;;;;;;;;10255139;28;20076;-68
2022/02/13 18:30:52;;;;;;;15.25;11.20;;;;;;;;;;10248864;28;20049;-67
2022/02/13 18:35:54;;;;;;;16.80;10.35;;;;;;;;;;10245053;28;20065;-67
2022/02/13 18:40:54;;;;;;;15.38;9.60;;;;;;;;;;10252530;28;20091;-67
2022/02/13 18:45:52;;;;;;;21.00;13.45;;;;;;;;;;10244936;28;20482;-67
2022/02/13 18:50:51;;;;;;;22.83;13.75;;;;;;;;;;10246919;28;20070;-68
2022/02/13 18:55:49;;;;;;;31.00;10.68;;;;;;;;;;10245026;28;20529;-66
2022/02/13 19:00:50;;;;;;;32.90;19.70;;;;;;;;;;10245409;28;20073;-66
2022/02/13 19:05:50;;;;;;;24.27;15.43;;;;;;;;;;10244041;28;20068;-66
2022/02/13 19:10:49;;;;;;;20.55;11.70;;;;;;;;;;10248162;28;20076;-67
2022/02/13 19:15:49;;;;;;;24.50;12.93;;;;;;;;;;10254331;28;20474;-67
2022/02/13 19:20:47;;;;;;;12.82;8.48;;;;;;;;;;10247294;28;20083;-66
2022/02/13 19:25:48;;;;;;;14.77;9.07;;;;;;;;;;10240418;28;20037;-66
2022/02/13 19:30:50;;;;;;;11.23;7.40;;;;;;;;;;10244993;28;20052;-67
2022/02/13 19:35:52;;;;;;;8.80;7.60;;;;;;;;;;10241570;28;20076;-66
2022/02/13 19:40:52;;;;;;;10.05;7.65;;;;;;;;;;10242406;28;20342;-66
2022/02/13 19:45:52;;;;;;;13.57;8.50;;;;;;;;;;10240420;28;20096;-66
2022/02/13 19:50:50;;;;;;;9.35;6.35;;;;;;;;;;10239721;28;20038;-66
2022/02/13 19:55:49;;;;;;;10.40;6.03;;;;;;;;;;10240821;28;20100;-66
2022/02/13 20:00:47;;;;;;;7.63;6.03;;;;;;;;;;10243106;28;20045;-66
2022/02/13 20:05:47;;;;;;;8.88;6.45;;;;;;;;;;10241387;28;20065;-65
2022/02/13 20:10:45;;;;;;;10.50;6.07;;;;;;;;;;10243373;28;20072;-65
2022/02/13 20:15:44;;;;;;;14.68;8.65;;;;;;;;;;10243175;28;20079;-66
2022/02/13 20:20:42;;;;;;;29.50;15.70;;;;;;;;;;10249117;28;20073;-66
2022/02/13 20:25:42;;;;;;;27.13;14.95;;;;;;;;;;10240582;28;20458;-67
2022/02/13 20:30:41;;;;;;;17.63;10.65;;;;;;;;;;10251481;28;20510;-67
2022/02/13 20:35:40;;;;;;;18.23;11.18;;;;;;;;;;10262897;28;20076;-64
2022/02/13 20:40:38;;;;;;;22.48;12.95;;;;;;;;;;10256453;28;20069;-62
2022/02/13 20:45:38;;;;;;;16.08;7.88;;;;;;;;;;10246011;28;20527;-63
2022/02/13 20:50:37;;;;;;;11.27;7.93;;;;;;;;;;10262375;28;20687;-63
2022/02/13 20:55:35;;;;;;;16.17;8.52;;;;;;;;;;10251456;28;20069;-65
2022/02/13 21:00:34;;;;;;;14.93;9.45;;;;;;;;;;10254477;28;20072;-65
2022/02/13 21:05:35;;;;;;;21.67;12.50;;;;;;;;;;10246855;28;20072;-65
2022/02/13 21:10:33;;;;;;;52.08;28.77;;;;;;;;;;10249922;28;20069;-65
2022/02/13 21:15:31;;;;;;;16.10;7.93;;;;;;;;;;10245154;28;20083;-63
2022/02/13 21:20:30;;;;;;;17.75;11.35;;;;;;;;;;10245591;28;20061;-64
2022/02/13 21:25:29;;;;;;;17.65;9.68;;;;;;;;;;10245797;28;20084;-63
2022/02/13 21:30:28;;;;;;;16.45;9.55;;;;;;;;;;10245396;28;20073;-63
2022/02/13 21:35:26;;;;;;;20.33;11.80;;;;;;;;;;10245273;28;20073;-63
2022/02/13 21:40:24;;;;;;;49.70;24.45;;;;;;;;;;10246181;28;20099;-63
2022/02/13 21:45:25;;;;;;;20.25;10.88;;;;;;;;;;10246634;28;20080;-63
2022/02/13 21:50:24;;;;;;;15.68;8.45;;;;;;;;;;10248753;28;20072;-63
2022/02/13 21:55:23;;;;;;;19.17;9.77;;;;;;;;;;10249639;28;20088;-64
2022/02/13 22:00:23;;;;;;;12.73;8.82;;;;;;;;;;10252341;28;20065;-63
2022/02/13 22:05:28;;;;;;;18.30;10.65;;;;;;;;;;10250673;28;20076;-63
2022/02/13 22:10:29;;;;;;;17.13;8.73;;;;;;;;;;10257358;28;20045;-65
2022/02/13 22:15:28;;;;;;;10.43;7.05;;;;;;;;;;10251254;28;20085;-64
2022/02/13 22:20:29;;;;;;;11.68;7.25;;;;;;;;;;10256624;28;20065;-63
2022/02/13 22:25:29;;;;;;;15.13;7.88;;;;;;;;;;10250049;28;20061;-63
2022/02/13 22:30:27;;;;;;;13.20;7.90;;;;;;;;;;10262828;28;20486;-63
2022/02/13 22:35:26;;;;;;;36.97;20.52;;;;;;;;;;10244177;28;20061;-63
2022/02/13 22:40:26;;;;;;;12.23;7.80;;;;;;;;;;10257485;28;20068;-64
2022/02/13 22:45:24;;;;;;;20.55;11.13;;;;;;;;;;10244344;28;20069;-65
2022/02/13 22:50:25;;;;;;;11.85;7.43;;;;;;;;;;10254456;28;20076;-64
2022/02/13 22:55:26;;;;;;;12.00;8.00;;;;;;;;;;10251421;28;20068;-63
2022/02/13 23:00:28;;;;;;;11.07;8.57;;;;;;;;;;10260777;28;20506;-63
2022/02/13 23:05:30;;;;;;;11.25;8.13;;;;;;;;;;10245398;28;20459;-64
2022/02/13 23:15:45;;;;;;;9.00;6.78;;;;;;;;;;10245035;28;20065;-62
2022/02/13 23:20:44;;;;;;;12.90;7.13;;;;;;;;;;10246707;28;20037;-62
2022/02/13 23:25:45;;;;;;;10.57;6.75;;;;;;;;;;10250705;28;20064;-61
2022/02/13 23:30:44;;;;;;;10.18;7.07;;;;;;;;;;10245595;28;20084;-62
2022/02/13 23:35:43;;;;;;;23.10;13.82;;;;;;;;;;10246027;28;20093;-61
2022/02/13 23:40:42;;;;;;;10.90;7.40;;;;;;;;;;10246260;28;20061;-63
2022/02/13 23:45:42;;;;;;;13.05;7.80;;;;;;;;;;10242952;28;20088;-63
2022/02/13 23:50:42;;;;;;;13.50;8.75;;;;;;;;;;10244137;28;20604;-63
2022/02/13 23:55:43;;;;;;;8.30;7.45;;;;;;;;;;10241965;28;20083;-62
